sensor_id;sensor_type;location;lat;lon;timestamp;P1;durP1;ratioP1;P2;durP2;ratioP2
30380;SDS011;17169;50.966;11.038;2022-09-23T00:01:01;5.78;;;1.50;;
30380;SDS011;17169;50.966;11.038;2022-09-23T00:04:06;3.42;;;1.60;;
30380;SDS011;17169;50.966;11.038;2022-09-23T00:07:10;3.67;;;1.80;;
30380;SDS011;17169;50.966;11.038;2022-09-23T00:10:13;3.28;;;1.67;;
30380;SDS011;17169;50.966;11.038;2022-09-23T00:13:15;2.83;;;1.50;;
30380;SDS011;17169;50.966;11.038;2022-09-23T00:16:18;4.85;;;2.10;;
30380;SDS011;17169;50.966;11.038;2022-09-23T00:19:22;4.10;;;1.87;;
30380;SDS011;17169;50.966;11.038;2022-09-23T00:22:25;2.72;;;1.83;;
30380;SDS011;17169;50.966;11.038;2022-09-23T00:25:28;3.85;;;1.83;;
30380;SDS011;17169;50.966;11.038;2022-09-23T00:28:31;3.28;;;1.80;;
30380;SDS011;17169;50.966;11.038;2022-09-23T00:31:34;5.40;;;1.83;;
30380;SDS011;17169;50.966;11.038;2022-09-23T00:34:36;7.55;;;2.00;;
30380;SDS011;17169;50.966;11.038;2022-09-23T00:37:40;4.05;;;1.77;;
30380;SDS011;17169;50.966;11.038;2022-09-23T00:40:42;3.78;;;1.73;;
30380;SDS011;17169;50.966;11.038;2022-09-23T00:43:46;6.63;;;1.88;;
30380;SDS011;17169;50.966;11.038;2022-09-23T00:46:50;3.47;;;1.70;;
30380;SDS011;17169;50.966;11.038;2022-09-23T00:49:55;3.10;;;1.85;;
30380;SDS011;17169;50.966;11.038;2022-09-23T00:53:03;6.13;;;1.98;;
30380;SDS011;17169;50.966;11.038;2022-09-23T00:56:09;5.45;;;2.05;;
30380;SDS011;17169;50.966;11.038;2022-09-23T00:59:12;4.28;;;1.80;;
30380;SDS011;17169;50.966;11.038;2022-09-23T01:02:15;6.07;;;2.10;;
30380;SDS011;17169;50.966;11.038;2022-09-23T01:08:24;3.63;;;1.95;;
30380;SDS011;17169;50.966;11.038;2022-09-23T01:11:35;7.53;;;2.00;;
30380;SDS011;17169;50.966;11.038;2022-09-23T01:17:50;4.45;;;2.13;;
30380;SDS011;17169;50.966;11.038;2022-09-23T01:21:03;4.70;;;2.03;;
30380;SDS011;17169;50.966;11.038;2022-09-23T01:24:28;6.20;;;2.00;;
30380;SDS011;17169;50.966;11.038;2022-09-23T01:27:50;4.85;;;2.08;;
30380;SDS011;17169;50.966;11.038;2022-09-23T01:31:06;5.40;;;1.90;;
30380;SDS011;17169;50.966;11.038;2022-09-23T01:34:14;3.35;;;2.10;;
30380;SDS011;17169;50.966;11.038;2022-09-23T01:37:26;3.25;;;1.98;;
30380;SDS011;17169;50.966;11.038;2022-09-23T01:40:37;3.63;;;2.05;;
30380;SDS011;17169;50.966;11.038;2022-09-23T01:43:48;5.18;;;2.50;;
30380;SDS011;17169;50.966;11.038;2022-09-23T01:47:01;4.97;;;2.63;;
30380;SDS011;17169;50.966;11.038;2022-09-23T01:50:11;4.00;;;2.22;;
30380;SDS011;17169;50.966;11.038;2022-09-23T01:53:32;5.25;;;2.15;;
30380;SDS011;17169;50.966;11.038;2022-09-23T01:56:43;4.30;;;2.20;;
30380;SDS011;17169;50.966;11.038;2022-09-23T01:59:50;4.50;;;2.20;;
30380;SDS011;17169;50.966;11.038;2022-09-23T02:02:58;4.50;;;2.03;;
30380;SDS011;17169;50.966;11.038;2022-09-23T02:06:06;4.20;;;1.92;;
30380;SDS011;17169;50.966;11.038;2022-09-23T02:09:13;3.67;;;1.83;;
30380;SDS011;17169;50.966;11.038;2022-09-23T02:12:19;7.15;;;2.08;;
30380;SDS011;17169;50.966;11.038;2022-09-23T02:15:25;3.50;;;1.70;;
30380;SDS011;17169;50.966;11.038;2022-09-23T02:18:35;8.02;;;2.10;;
30380;SDS011;17169;50.966;11.038;2022-09-23T02:21:42;4.57;;;1.92;;
30380;SDS011;17169;50.966;11.038;2022-09-23T02:24:48;4.82;;;2.17;;
30380;SDS011;17169;50.966;11.038;2022-09-23T02:27:53;3.90;;;2.22;;
30380;SDS011;17169;50.966;11.038;2022-09-23T02:31:03;18.83;;;9.00;;
30380;SDS011;17169;50.966;11.038;2022-09-23T02:34:15;12.27;;;7.10;;
30380;SDS011;17169;50.966;11.038;2022-09-23T02:37:24;4.57;;;1.98;;
30380;SDS011;17169;50.966;11.038;2022-09-23T02:40:32;5.80;;;2.67;;
30380;SDS011;17169;50.966;11.038;2022-09-23T02:43:40;5.07;;;2.35;;
30380;SDS011;17169;50.966;11.038;2022-09-23T02:46:47;5.75;;;2.30;;
30380;SDS011;17169;50.966;11.038;2022-09-23T02:49:53;4.57;;;2.10;;
30380;SDS011;17169;50.966;11.038;2022-09-23T02:52:56;6.28;;;2.20;;
30380;SDS011;17169;50.966;11.038;2022-09-23T02:55:59;3.50;;;1.90;;
30380;SDS011;17169;50.966;11.038;2022-09-23T02:59:02;4.03;;;2.17;;
30380;SDS011;17169;50.966;11.038;2022-09-23T03:02:10;4.30;;;2.00;;
30380;SDS011;17169;50.966;11.038;2022-09-23T03:05:33;4.30;;;2.17;;
30380;SDS011;17169;50.966;11.038;2022-09-23T03:08:41;3.75;;;2.00;;
30380;SDS011;17169;50.966;11.038;2022-09-23T03:11:51;4.88;;;2.03;;
30380;SDS011;17169;50.966;11.038;2022-09-23T03:15:03;4.80;;;2.20;;
30380;SDS011;17169;50.966;11.038;2022-09-23T03:18:20;3.05;;;1.58;;
30380;SDS011;17169;50.966;11.038;2022-09-23T03:21:32;6.03;;;2.25;;
30380;SDS011;17169;50.966;11.038;2022-09-23T03:24:41;3.33;;;1.90;;
30380;SDS011;17169;50.966;11.038;2022-09-23T03:27:46;5.88;;;1.95;;
30380;SDS011;17169;50.966;11.038;2022-09-23T03:30:49;8.07;;;1.90;;
30380;SDS011;17169;50.966;11.038;2022-09-23T03:33:54;3.97;;;1.88;;
30380;SDS011;17169;50.966;11.038;2022-09-23T03:37:02;3.40;;;1.90;;
30380;SDS011;17169;50.966;11.038;2022-09-23T03:40:12;4.15;;;2.05;;
30380;SDS011;17169;50.966;11.038;2022-09-23T03:43:17;4.20;;;2.03;;
30380;SDS011;17169;50.966;11.038;2022-09-23T03:46:19;3.28;;;2.03;;
30380;SDS011;17169;50.966;11.038;2022-09-23T03:49:26;4.07;;;2.08;;
30380;SDS011;17169;50.966;11.038;2022-09-23T03:52:34;3.22;;;2.00;;
30380;SDS011;17169;50.966;11.038;2022-09-23T03:55:39;3.80;;;1.85;;
30380;SDS011;17169;50.966;11.038;2022-09-23T03:58:41;3.13;;;1.70;;
30380;SDS011;17169;50.966;11.038;2022-09-23T04:01:44;2.97;;;1.88;;
30380;SDS011;17169;50.966;11.038;2022-09-23T04:04:47;4.35;;;1.83;;
30380;SDS011;17169;50.966;11.038;2022-09-23T04:07:51;4.65;;;2.08;;
30380;SDS011;17169;50.966;11.038;2022-09-23T04:10:57;5.68;;;2.22;;
30380;SDS011;17169;50.966;11.038;2022-09-23T04:14:01;5.47;;;2.05;;
30380;SDS011;17169;50.966;11.038;2022-09-23T04:17:03;4.85;;;2.10;;
30380;SDS011;17169;50.966;11.038;2022-09-23T04:20:06;5.80;;;2.17;;
30380;SDS011;17169;50.966;11.038;2022-09-23T04:23:11;7.45;;;2.65;;
30380;SDS011;17169;50.966;11.038;2022-09-23T04:26:13;5.03;;;2.03;;
30380;SDS011;17169;50.966;11.038;2022-09-23T04:29:16;4.68;;;2.40;;
30380;SDS011;17169;50.966;11.038;2022-09-23T04:32:18;4.43;;;2.45;;
30380;SDS011;17169;50.966;11.038;2022-09-23T04:35:20;4.82;;;2.40;;
30380;SDS011;17169;50.966;11.038;2022-09-23T04:38:24;7.45;;;2.58;;
30380;SDS011;17169;50.966;11.038;2022-09-23T04:41:27;7.55;;;2.67;;
30380;SDS011;17169;50.966;11.038;2022-09-23T04:44:29;4.45;;;1.90;;
30380;SDS011;17169;50.966;11.038;2022-09-23T04:47:32;5.28;;;2.00;;
30380;SDS011;17169;50.966;11.038;2022-09-23T04:50:35;5.13;;;2.28;;
30380;SDS011;17169;50.966;11.038;2022-09-23T04:53:40;9.73;;;2.50;;
30380;SDS011;17169;50.966;11.038;2022-09-23T04:56:44;6.95;;;2.67;;
30380;SDS011;17169;50.966;11.038;2022-09-23T04:59:46;7.85;;;2.22;;
30380;SDS011;17169;50.966;11.038;2022-09-23T05:02:49;5.47;;;2.03;;
30380;SDS011;17169;50.966;11.038;2022-09-23T05:05:51;7.25;;;2.63;;
30380;SDS011;17169;50.966;11.038;2022-09-23T05:08:56;5.28;;;2.70;;
30380;SDS011;17169;50.966;11.038;2022-09-23T05:15:02;6.97;;;2.08;;
30380;SDS011;17169;50.966;11.038;2022-09-23T05:18:05;7.38;;;2.60;;
30380;SDS011;17169;50.966;11.038;2022-09-23T05:21:07;4.20;;;2.10;;
30380;SDS011;17169;50.966;11.038;2022-09-23T05:24:12;7.03;;;2.42;;
30380;SDS011;17169;50.966;11.038;2022-09-23T05:27:16;6.75;;;2.97;;
30380;SDS011;17169;50.966;11.038;2022-09-23T05:30:18;6.63;;;3.88;;
30380;SDS011;17169;50.966;11.038;2022-09-23T05:33:20;9.10;;;2.90;;
30380;SDS011;17169;50.966;11.038;2022-09-23T05:36:23;4.65;;;3.00;;
30380;SDS011;17169;50.966;11.038;2022-09-23T05:39:28;5.22;;;2.65;;
30380;SDS011;17169;50.966;11.038;2022-09-23T05:42:30;4.30;;;2.50;;
30380;SDS011;17169;50.966;11.038;2022-09-23T05:45:33;16.45;;;2.85;;
30380;SDS011;17169;50.966;11.038;2022-09-23T05:48:36;6.72;;;2.40;;
30380;SDS011;17169;50.966;11.038;2022-09-23T05:51:39;5.53;;;2.65;;
30380;SDS011;17169;50.966;11.038;2022-09-23T05:54:43;5.15;;;2.47;;
30380;SDS011;17169;50.966;11.038;2022-09-23T05:57:45;7.47;;;2.55;;
30380;SDS011;17169;50.966;11.038;2022-09-23T06:00:47;4.90;;;2.25;;
30380;SDS011;17169;50.966;11.038;2022-09-23T06:03:50;3.83;;;2.17;;
30380;SDS011;17169;50.966;11.038;2022-09-23T06:06:53;4.50;;;2.55;;
30380;SDS011;17169;50.966;11.038;2022-09-23T06:09:59;4.63;;;2.00;;
30380;SDS011;17169;50.966;11.038;2022-09-23T06:13:01;6.47;;;2.38;;
30380;SDS011;17169;50.966;11.038;2022-09-23T06:16:04;6.55;;;2.47;;
30380;SDS011;17169;50.966;11.038;2022-09-23T06:19:07;4.82;;;2.65;;
30380;SDS011;17169;50.966;11.038;2022-09-23T06:22:10;6.18;;;2.08;;
30380;SDS011;17169;50.966;11.038;2022-09-23T06:25:17;5.38;;;2.28;;
30380;SDS011;17169;50.966;11.038;2022-09-23T06:28:22;6.93;;;2.88;;
30380;SDS011;17169;50.966;11.038;2022-09-23T06:31:25;8.95;;;2.88;;
30380;SDS011;17169;50.966;11.038;2022-09-23T06:34:27;7.85;;;3.00;;
30380;SDS011;17169;50.966;11.038;2022-09-23T06:40:54;5.32;;;3.10;;
30380;SDS011;17169;50.966;11.038;2022-09-23T06:46:59;5.40;;;3.30;;
30380;SDS011;17169;50.966;11.038;2022-09-23T06:50:02;8.32;;;2.85;;
30380;SDS011;17169;50.966;11.038;2022-09-23T06:53:04;8.93;;;3.05;;
30380;SDS011;17169;50.966;11.038;2022-09-23T06:56:08;5.95;;;3.72;;
30380;SDS011;17169;50.966;11.038;2022-09-23T06:59:11;6.43;;;2.67;;
30380;SDS011;17169;50.966;11.038;2022-09-23T07:05:18;7.68;;;3.33;;
30380;SDS011;17169;50.966;11.038;2022-09-23T07:08:21;6.43;;;3.45;;
30380;SDS011;17169;50.966;11.038;2022-09-23T07:11:25;9.35;;;3.50;;
30380;SDS011;17169;50.966;11.038;2022-09-23T07:14:28;4.88;;;3.05;;
30380;SDS011;17169;50.966;11.038;2022-09-23T07:17:30;5.57;;;2.33;;
30380;SDS011;17169;50.966;11.038;2022-09-23T07:20:33;5.93;;;2.13;;
30380;SDS011;17169;50.966;11.038;2022-09-23T07:23:35;4.00;;;2.40;;
30380;SDS011;17169;50.966;11.038;2022-09-23T07:26:39;4.88;;;2.67;;
30380;SDS011;17169;50.966;11.038;2022-09-23T07:29:42;3.83;;;2.30;;
30380;SDS011;17169;50.966;11.038;2022-09-23T07:32:44;10.88;;;2.63;;
30380;SDS011;17169;50.966;11.038;2022-09-23T07:35:47;9.55;;;2.53;;
30380;SDS011;17169;50.966;11.038;2022-09-23T07:38:49;4.03;;;2.17;;
30380;SDS011;17169;50.966;11.038;2022-09-23T07:41:53;6.43;;;2.67;;
30380;SDS011;17169;50.966;11.038;2022-09-23T07:44:56;7.75;;;2.90;;
30380;SDS011;17169;50.966;11.038;2022-09-23T07:47:58;5.03;;;2.90;;
30380;SDS011;17169;50.966;11.038;2022-09-23T07:51:04;6.13;;;3.13;;
30380;SDS011;17169;50.966;11.038;2022-09-23T07:54:09;7.32;;;2.80;;
30380;SDS011;17169;50.966;11.038;2022-09-23T07:57:14;10.07;;;3.03;;
30380;SDS011;17169;50.966;11.038;2022-09-23T08:00:16;5.78;;;2.83;;
30380;SDS011;17169;50.966;11.038;2022-09-23T08:03:22;10.18;;;3.10;;
30380;SDS011;17169;50.966;11.038;2022-09-23T08:06:24;8.10;;;3.67;;
30380;SDS011;17169;50.966;11.038;2022-09-23T08:09:28;8.35;;;4.13;;
30380;SDS011;17169;50.966;11.038;2022-09-23T08:12:33;14.20;;;3.90;;
30380;SDS011;17169;50.966;11.038;2022-09-23T08:15:35;10.27;;;3.58;;
30380;SDS011;17169;50.966;11.038;2022-09-23T08:18:38;9.30;;;3.67;;
30380;SDS011;17169;50.966;11.038;2022-09-23T08:21:44;8.45;;;2.78;;
30380;SDS011;17169;50.966;11.038;2022-09-23T08:24:47;6.35;;;3.15;;
30380;SDS011;17169;50.966;11.038;2022-09-23T08:27:51;8.27;;;3.00;;
30380;SDS011;17169;50.966;11.038;2022-09-23T08:30:53;6.72;;;2.83;;
30380;SDS011;17169;50.966;11.038;2022-09-23T08:33:56;7.90;;;3.00;;
30380;SDS011;17169;50.966;11.038;2022-09-23T08:36:59;11.07;;;2.92;;
30380;SDS011;17169;50.966;11.038;2022-09-23T08:40:01;9.82;;;2.70;;
30380;SDS011;17169;50.966;11.038;2022-09-23T08:43:05;5.93;;;2.45;;
30380;SDS011;17169;50.966;11.038;2022-09-23T08:46:09;4.35;;;2.63;;
30380;SDS011;17169;50.966;11.038;2022-09-23T08:49:13;6.60;;;2.75;;
30380;SDS011;17169;50.966;11.038;2022-09-23T08:52:20;5.68;;;2.63;;
30380;SDS011;17169;50.966;11.038;2022-09-23T08:55:31;5.82;;;3.05;;
30380;SDS011;17169;50.966;11.038;2022-09-23T08:58:40;4.97;;;2.67;;
30380;SDS011;17169;50.966;11.038;2022-09-23T09:01:48;4.55;;;2.45;;
30380;SDS011;17169;50.966;11.038;2022-09-23T09:04:53;5.57;;;2.78;;
30380;SDS011;17169;50.966;11.038;2022-09-23T09:07:59;6.13;;;2.88;;
30380;SDS011;17169;50.966;11.038;2022-09-23T09:11:04;6.82;;;2.80;;
30380;SDS011;17169;50.966;11.038;2022-09-23T09:14:14;6.90;;;2.42;;
30380;SDS011;17169;50.966;11.038;2022-09-23T09:17:25;4.68;;;2.53;;
30380;SDS011;17169;50.966;11.038;2022-09-23T09:20:37;6.03;;;2.40;;
30380;SDS011;17169;50.966;11.038;2022-09-23T09:23:42;5.43;;;2.55;;
30380;SDS011;17169;50.966;11.038;2022-09-23T09:26:51;9.20;;;2.90;;
30380;SDS011;17169;50.966;11.038;2022-09-23T09:29:55;3.88;;;2.00;;
30380;SDS011;17169;50.966;11.038;2022-09-23T09:33:01;9.00;;;2.30;;
30380;SDS011;17169;50.966;11.038;2022-09-23T09:36:13;8.02;;;2.38;;
30380;SDS011;17169;50.966;11.038;2022-09-23T09:39:23;3.30;;;1.60;;
30380;SDS011;17169;50.966;11.038;2022-09-23T09:42:29;5.78;;;2.08;;
30380;SDS011;17169;50.966;11.038;2022-09-23T09:45:45;5.45;;;3.03;;
30380;SDS011;17169;50.966;11.038;2022-09-23T09:49:02;5.05;;;2.42;;
30380;SDS011;17169;50.966;11.038;2022-09-23T09:52:19;5.57;;;2.47;;
30380;SDS011;17169;50.966;11.038;2022-09-23T09:55:24;2.83;;;1.65;;
30380;SDS011;17169;50.966;11.038;2022-09-23T09:58:31;2.67;;;1.70;;
30380;SDS011;17169;50.966;11.038;2022-09-23T10:01:44;4.22;;;1.92;;
30380;SDS011;17169;50.966;11.038;2022-09-23T10:04:52;6.80;;;1.77;;
30380;SDS011;17169;50.966;11.038;2022-09-23T10:08:01;7.30;;;2.10;;
30380;SDS011;17169;50.966;11.038;2022-09-23T10:11:22;5.05;;;2.10;;
30380;SDS011;17169;50.966;11.038;2022-09-23T10:14:25;7.15;;;2.00;;
30380;SDS011;17169;50.966;11.038;2022-09-23T10:17:31;3.95;;;1.88;;
30380;SDS011;17169;50.966;11.038;2022-09-23T10:20:34;4.13;;;1.30;;
30380;SDS011;17169;50.966;11.038;2022-09-23T10:23:39;2.30;;;1.40;;
30380;SDS011;17169;50.966;11.038;2022-09-23T10:26:51;4.25;;;1.20;;
30380;SDS011;17169;50.966;11.038;2022-09-23T10:29:58;2.28;;;1.30;;
30380;SDS011;17169;50.966;11.038;2022-09-23T10:36:28;3.63;;;1.02;;
30380;SDS011;17169;50.966;11.038;2022-09-23T10:39:31;3.05;;;1.33;;
30380;SDS011;17169;50.966;11.038;2022-09-23T10:43:04;2.47;;;1.27;;
30380;SDS011;17169;50.966;11.038;2022-09-23T10:46:38;2.85;;;1.38;;
30380;SDS011;17169;50.966;11.038;2022-09-23T10:49:50;3.72;;;1.40;;
30380;SDS011;17169;50.966;11.038;2022-09-23T10:53:17;2.67;;;1.27;;
30380;SDS011;17169;50.966;11.038;2022-09-23T10:56:29;2.53;;;1.25;;
30380;SDS011;17169;50.966;11.038;2022-09-23T10:59:45;3.17;;;1.20;;
30380;SDS011;17169;50.966;11.038;2022-09-23T11:03:08;6.87;;;1.10;;
30380;SDS011;17169;50.966;11.038;2022-09-23T11:06:25;3.13;;;1.30;;
30380;SDS011;17169;50.966;11.038;2022-09-23T11:09:40;3.05;;;1.38;;
30380;SDS011;17169;50.966;11.038;2022-09-23T11:12:54;4.90;;;1.58;;
30380;SDS011;17169;50.966;11.038;2022-09-23T11:16:10;2.10;;;1.10;;
30380;SDS011;17169;50.966;11.038;2022-09-23T11:19:29;2.42;;;1.30;;
30380;SDS011;17169;50.966;11.038;2022-09-23T11:22:51;2.72;;;1.05;;
30380;SDS011;17169;50.966;11.038;2022-09-23T11:26:14;2.20;;;1.25;;
30380;SDS011;17169;50.966;11.038;2022-09-23T11:29:39;1.35;;;0.90;;
30380;SDS011;17169;50.966;11.038;2022-09-23T11:33:18;2.97;;;1.20;;
30380;SDS011;17169;50.966;11.038;2022-09-23T11:36:36;4.35;;;1.40;;
30380;SDS011;17169;50.966;11.038;2022-09-23T11:39:45;6.88;;;1.33;;
30380;SDS011;17169;50.966;11.038;2022-09-23T11:42:52;6.68;;;1.98;;
30380;SDS011;17169;50.966;11.038;2022-09-23T11:45:59;24.85;;;3.88;;
30380;SDS011;17169;50.966;11.038;2022-09-23T11:49:10;5.32;;;1.30;;
30380;SDS011;17169;50.966;11.038;2022-09-23T11:52:18;2.85;;;1.10;;
30380;SDS011;17169;50.966;11.038;2022-09-23T11:55:27;4.22;;;1.58;;
30380;SDS011;17169;50.966;11.038;2022-09-23T11:58:34;3.97;;;1.55;;
30380;SDS011;17169;50.966;11.038;2022-09-23T12:01:43;4.78;;;1.58;;
30380;SDS011;17169;50.966;11.038;2022-09-23T12:04:51;3.30;;;1.20;;
30380;SDS011;17169;50.966;11.038;2022-09-23T12:08:01;2.03;;;1.10;;
30380;SDS011;17169;50.966;11.038;2022-09-23T12:11:17;4.05;;;1.38;;
30380;SDS011;17169;50.966;11.038;2022-09-23T12:14:25;3.63;;;1.70;;
30380;SDS011;17169;50.966;11.038;2022-09-23T12:21:16;4.88;;;1.40;;
30380;SDS011;17169;50.966;11.038;2022-09-23T12:24:45;1.55;;;1.02;;
30380;SDS011;17169;50.966;11.038;2022-09-23T12:27:58;1.52;;;1.10;;
30380;SDS011;17169;50.966;11.038;2022-09-23T12:31:07;2.75;;;1.45;;
30380;SDS011;17169;50.966;11.038;2022-09-23T12:34:20;4.63;;;1.67;;
30380;SDS011;17169;50.966;11.038;2022-09-23T12:37:27;3.85;;;1.58;;
30380;SDS011;17169;50.966;11.038;2022-09-23T12:40:34;3.17;;;1.70;;
30380;SDS011;17169;50.966;11.038;2022-09-23T12:43:50;5.32;;;1.30;;
30380;SDS011;17169;50.966;11.038;2022-09-23T12:50:50;2.55;;;1.42;;
30380;SDS011;17169;50.966;11.038;2022-09-23T12:57:38;2.67;;;1.38;;
30380;SDS011;17169;50.966;11.038;2022-09-23T13:00:44;2.88;;;1.20;;
30380;SDS011;17169;50.966;11.038;2022-09-23T13:07:48;2.03;;;1.02;;
30380;SDS011;17169;50.966;11.038;2022-09-23T13:10:51;2.05;;;1.13;;
30380;SDS011;17169;50.966;11.038;2022-09-23T13:13:56;1.93;;;1.17;;
30380;SDS011;17169;50.966;11.038;2022-09-23T13:17:03;2.90;;;1.50;;
30380;SDS011;17169;50.966;11.038;2022-09-23T13:20:30;3.03;;;1.23;;
30380;SDS011;17169;50.966;11.038;2022-09-23T13:23:36;2.17;;;1.25;;
30380;SDS011;17169;50.966;11.038;2022-09-23T13:26:38;3.58;;;1.15;;
30380;SDS011;17169;50.966;11.038;2022-09-23T13:29:41;2.38;;;0.98;;
30380;SDS011;17169;50.966;11.038;2022-09-23T13:32:49;5.43;;;1.35;;
30380;SDS011;17169;50.966;11.038;2022-09-23T13:35:55;2.28;;;1.10;;
30380;SDS011;17169;50.966;11.038;2022-09-23T13:39:12;1.73;;;1.20;;
30380;SDS011;17169;50.966;11.038;2022-09-23T13:42:17;1.30;;;0.90;;
30380;SDS011;17169;50.966;11.038;2022-09-23T13:45:27;2.50;;;1.17;;
30380;SDS011;17169;50.966;11.038;2022-09-23T13:48:32;2.50;;;1.20;;
30380;SDS011;17169;50.966;11.038;2022-09-23T13:51:35;3.58;;;1.20;;
30380;SDS011;17169;50.966;11.038;2022-09-23T13:54:45;1.52;;;0.90;;
30380;SDS011;17169;50.966;11.038;2022-09-23T13:57:55;2.17;;;1.20;;
30380;SDS011;17169;50.966;11.038;2022-09-23T14:01:02;2.08;;;1.08;;
30380;SDS011;17169;50.966;11.038;2022-09-23T14:04:18;1.58;;;0.98;;
30380;SDS011;17169;50.966;11.038;2022-09-23T14:07:24;1.73;;;0.93;;
30380;SDS011;17169;50.966;11.038;2022-09-23T14:10:28;4.35;;;1.33;;
30380;SDS011;17169;50.966;11.038;2022-09-23T14:13:31;1.83;;;1.30;;
30380;SDS011;17169;50.966;11.038;2022-09-23T14:16:38;2.38;;;1.35;;
30380;SDS011;17169;50.966;11.038;2022-09-23T14:19:43;2.30;;;0.93;;
30380;SDS011;17169;50.966;11.038;2022-09-23T14:22:46;2.70;;;1.10;;
30380;SDS011;17169;50.966;11.038;2022-09-23T14:25:49;1.35;;;0.77;;
30380;SDS011;17169;50.966;11.038;2022-09-23T14:28:53;2.13;;;0.97;;
30380;SDS011;17169;50.966;11.038;2022-09-23T14:31:55;1.23;;;0.85;;
30380;SDS011;17169;50.966;11.038;2022-09-23T14:35:06;4.95;;;0.90;;
30380;SDS011;17169;50.966;11.038;2022-09-23T14:38:20;1.45;;;0.90;;
30380;SDS011;17169;50.966;11.038;2022-09-23T14:41:43;2.08;;;1.08;;
30380;SDS011;17169;50.966;11.038;2022-09-23T14:44:47;1.47;;;0.90;;
30380;SDS011;17169;50.966;11.038;2022-09-23T14:47:51;2.33;;;1.10;;
30380;SDS011;17169;50.966;11.038;2022-09-23T14:51:00;3.40;;;1.20;;
30380;SDS011;17169;50.966;11.038;2022-09-23T14:57:41;1.88;;;0.95;;
30380;SDS011;17169;50.966;11.038;2022-09-23T15:00:50;3.08;;;1.02;;
30380;SDS011;17169;50.966;11.038;2022-09-23T15:03:55;1.65;;;1.00;;
30380;SDS011;17169;50.966;11.038;2022-09-23T15:07:01;4.72;;;1.25;;
30380;SDS011;17169;50.966;11.038;2022-09-23T15:10:06;2.30;;;1.05;;
30380;SDS011;17169;50.966;11.038;2022-09-23T15:13:11;1.15;;;0.98;;
30380;SDS011;17169;50.966;11.038;2022-09-23T15:16:21;1.58;;;0.80;;
30380;SDS011;17169;50.966;11.038;2022-09-23T15:19:26;1.55;;;1.00;;
30380;SDS011;17169;50.966;11.038;2022-09-23T15:22:32;2.45;;;0.90;;
30380;SDS011;17169;50.966;11.038;2022-09-23T15:25:43;2.28;;;1.20;;
30380;SDS011;17169;50.966;11.038;2022-09-23T15:28:46;3.00;;;1.13;;
30380;SDS011;17169;50.966;11.038;2022-09-23T15:31:49;2.47;;;1.20;;
30380;SDS011;17169;50.966;11.038;2022-09-23T15:34:51;4.70;;;1.08;;
30380;SDS011;17169;50.966;11.038;2022-09-23T15:37:55;2.67;;;1.17;;
30380;SDS011;17169;50.966;11.038;2022-09-23T15:40:59;2.38;;;1.17;;
30380;SDS011;17169;50.966;11.038;2022-09-23T15:44:03;5.30;;;1.35;;
30380;SDS011;17169;50.966;11.038;2022-09-23T15:47:13;2.20;;;1.25;;
30380;SDS011;17169;50.966;11.038;2022-09-23T15:50:18;2.15;;;1.10;;
30380;SDS011;17169;50.966;11.038;2022-09-23T15:53:23;4.18;;;1.40;;
30380;SDS011;17169;50.966;11.038;2022-09-23T15:56:27;2.78;;;1.23;;
30380;SDS011;17169;50.966;11.038;2022-09-23T15:59:29;5.07;;;1.60;;
30380;SDS011;17169;50.966;11.038;2022-09-23T16:02:32;2.42;;;1.10;;
30380;SDS011;17169;50.966;11.038;2022-09-23T16:05:36;2.35;;;1.25;;
30380;SDS011;17169;50.966;11.038;2022-09-23T16:08:41;4.35;;;1.58;;
30380;SDS011;17169;50.966;11.038;2022-09-23T16:11:43;6.32;;;1.25;;
30380;SDS011;17169;50.966;11.038;2022-09-23T16:14:49;2.33;;;1.40;;
30380;SDS011;17169;50.966;11.038;2022-09-23T16:17:51;2.42;;;1.40;;
30380;SDS011;17169;50.966;11.038;2022-09-23T16:20:54;2.42;;;1.30;;
30380;SDS011;17169;50.966;11.038;2022-09-23T16:24:00;2.38;;;1.35;;
30380;SDS011;17169;50.966;11.038;2022-09-23T16:27:02;3.70;;;1.20;;
30380;SDS011;17169;50.966;11.038;2022-09-23T16:30:07;3.60;;;1.52;;
30380;SDS011;17169;50.966;11.038;2022-09-23T16:33:11;4.43;;;1.42;;
30380;SDS011;17169;50.966;11.038;2022-09-23T16:36:14;2.13;;;1.45;;
30380;SDS011;17169;50.966;11.038;2022-09-23T16:39:23;4.10;;;1.50;;
30380;SDS011;17169;50.966;11.038;2022-09-23T16:42:25;4.43;;;1.70;;
30380;SDS011;17169;50.966;11.038;2022-09-23T16:45:28;3.05;;;1.90;;
30380;SDS011;17169;50.966;11.038;2022-09-23T16:48:30;5.07;;;1.92;;
30380;SDS011;17169;50.966;11.038;2022-09-23T16:51:33;5.93;;;2.00;;
30380;SDS011;17169;50.966;11.038;2022-09-23T16:54:39;3.90;;;1.90;;
30380;SDS011;17169;50.966;11.038;2022-09-23T16:57:42;6.18;;;2.35;;
30380;SDS011;17169;50.966;11.038;2022-09-23T17:00:45;3.92;;;1.80;;
30380;SDS011;17169;50.966;11.038;2022-09-23T17:04:04;3.38;;;1.80;;
30380;SDS011;17169;50.966;11.038;2022-09-23T17:07:08;5.32;;;1.80;;
30380;SDS011;17169;50.966;11.038;2022-09-23T17:10:12;8.25;;;2.40;;
30380;SDS011;17169;50.966;11.038;2022-09-23T17:13:18;4.18;;;2.40;;
30380;SDS011;17169;50.966;11.038;2022-09-23T17:16:21;7.00;;;2.53;;
30380;SDS011;17169;50.966;11.038;2022-09-23T17:19:24;4.95;;;2.33;;
30380;SDS011;17169;50.966;11.038;2022-09-23T17:22:28;8.13;;;2.78;;
30380;SDS011;17169;50.966;11.038;2022-09-23T17:25:32;4.47;;;2.40;;
30380;SDS011;17169;50.966;11.038;2022-09-23T17:28:35;6.18;;;2.35;;
30380;SDS011;17169;50.966;11.038;2022-09-23T17:31:37;5.95;;;2.50;;
30380;SDS011;17169;50.966;11.038;2022-09-23T17:34:39;5.13;;;2.10;;
30380;SDS011;17169;50.966;11.038;2022-09-23T17:37:42;5.13;;;2.50;;
30380;SDS011;17169;50.966;11.038;2022-09-23T17:40:50;5.97;;;2.95;;
30380;SDS011;17169;50.966;11.038;2022-09-23T17:43:54;6.82;;;3.10;;
30380;SDS011;17169;50.966;11.038;2022-09-23T17:46:58;5.70;;;3.05;;
30380;SDS011;17169;50.966;11.038;2022-09-23T17:50:02;8.52;;;4.70;;
30380;SDS011;17169;50.966;11.038;2022-09-23T17:53:05;7.55;;;3.60;;
30380;SDS011;17169;50.966;11.038;2022-09-23T17:56:10;9.77;;;4.55;;
30380;SDS011;17169;50.966;11.038;2022-09-23T17:59:15;10.48;;;4.72;;
30380;SDS011;17169;50.966;11.038;2022-09-23T18:02:17;5.75;;;2.75;;
30380;SDS011;17169;50.966;11.038;2022-09-23T18:05:20;8.55;;;2.58;;
30380;SDS011;17169;50.966;11.038;2022-09-23T18:08:23;14.38;;;3.70;;
30380;SDS011;17169;50.966;11.038;2022-09-23T18:11:27;7.30;;;3.40;;
30380;SDS011;17169;50.966;11.038;2022-09-23T18:14:31;7.13;;;3.58;;
30380;SDS011;17169;50.966;11.038;2022-09-23T18:17:33;8.88;;;3.70;;
30380;SDS011;17169;50.966;11.038;2022-09-23T18:20:35;7.03;;;4.05;;
30380;SDS011;17169;50.966;11.038;2022-09-23T18:23:38;9.95;;;4.22;;
30380;SDS011;17169;50.966;11.038;2022-09-23T18:26:42;12.57;;;5.63;;
30380;SDS011;17169;50.966;11.038;2022-09-23T18:29:45;12.63;;;3.83;;
30380;SDS011;17169;50.966;11.038;2022-09-23T18:32:47;6.50;;;3.35;;
30380;SDS011;17169;50.966;11.038;2022-09-23T18:35:51;8.75;;;4.25;;
30380;SDS011;17169;50.966;11.038;2022-09-23T18:38:53;16.67;;;8.32;;
30380;SDS011;17169;50.966;11.038;2022-09-23T18:41:57;10.25;;;5.18;;
30380;SDS011;17169;50.966;11.038;2022-09-23T18:45:02;9.98;;;4.57;;
30380;SDS011;17169;50.966;11.038;2022-09-23T18:48:04;7.80;;;4.10;;
30380;SDS011;17169;50.966;11.038;2022-09-23T18:51:25;7.30;;;4.40;;
30380;SDS011;17169;50.966;11.038;2022-09-23T18:54:29;14.50;;;8.77;;
30380;SDS011;17169;50.966;11.038;2022-09-23T18:57:33;11.60;;;5.50;;
30380;SDS011;17169;50.966;11.038;2022-09-23T19:00:36;13.02;;;6.40;;
30380;SDS011;17169;50.966;11.038;2022-09-23T19:03:39;13.50;;;7.72;;
30380;SDS011;17169;50.966;11.038;2022-09-23T19:06:41;13.93;;;7.93;;